sensor_id;sensor_type;location;lat;lon;timestamp;temperature;humidity
70826;SHT31;58446;41.490;22.098;2023-08-07T00:00:31;24.97;53.83
70826;SHT31;58446;41.490;22.098;2023-08-07T00:02:57;25.24;52.95
70826;SHT31;58446;41.490;22.098;2023-08-07T00:05:23;25.18;52.56
70826;SHT31;58446;41.490;22.098;2023-08-07T00:07:48;25.12;52.53
70826;SHT31;58446;41.490;22.098;2023-08-07T00:10:14;25.12;52.44
70826;SHT31;58446;41.490;22.098;2023-08-07T00:12:40;25.06;52.31
70826;SHT31;58446;41.490;22.098;2023-08-07T00:15:06;25.08;52.22
70826;SHT31;58446;41.490;22.098;2023-08-07T00:17:32;24.94;52.58
70826;SHT31;58446;41.490;22.098;2023-08-07T00:19:58;24.92;52.54
70826;SHT31;58446;41.490;22.098;2023-08-07T00:22:23;24.74;53.07
70826;SHT31;58446;41.490;22.098;2023-08-07T00:24:50;24.56;53.46
70826;SHT31;58446;41.490;22.098;2023-08-07T00:27:16;24.76;53.15
70826;SHT31;58446;41.490;22.098;2023-08-07T00:29:44;24.90;52.82
70826;SHT31;58446;41.490;22.098;2023-08-07T00:32:11;24.78;53.13
70826;SHT31;58446;41.490;22.098;2023-08-07T00:34:38;24.76;53.28
70826;SHT31;58446;41.490;22.098;2023-08-07T00:37:05;24.67;53.66
70826;SHT31;58446;41.490;22.098;2023-08-07T00:39:30;24.76;53.52
70826;SHT31;58446;41.490;22.098;2023-08-07T00:41:57;24.56;54.90
70826;SHT31;58446;41.490;22.098;2023-08-07T00:44:24;24.46;55.36
70826;SHT31;58446;41.490;22.098;2023-08-07T00:46:52;24.37;55.01
70826;SHT31;58446;41.490;22.098;2023-08-07T00:49:18;24.43;54.96
70826;SHT31;58446;41.490;22.098;2023-08-07T00:51:45;24.52;54.71
70826;SHT31;58446;41.490;22.098;2023-08-07T00:54:12;24.56;54.69
70826;SHT31;58446;41.490;22.098;2023-08-07T00:56:40;24.57;54.73
70826;SHT31;58446;41.490;22.098;2023-08-07T00:59:06;24.68;54.43
70826;SHT31;58446;41.490;22.098;2023-08-07T01:01:32;24.76;54.50
70826;SHT31;58446;41.490;22.098;2023-08-07T01:03:58;24.77;54.36
70826;SHT31;58446;41.490;22.098;2023-08-07T01:06:24;24.77;54.47
70826;SHT31;58446;41.490;22.098;2023-08-07T01:08:50;24.50;55.16
70826;SHT31;58446;41.490;22.098;2023-08-07T01:19:22;23.99;56.38
70826;SHT31;58446;41.490;22.098;2023-08-07T01:21:48;24.23;55.91
70826;SHT31;58446;41.490;22.098;2023-08-07T01:24:14;24.40;55.39
70826;SHT31;58446;41.490;22.098;2023-08-07T01:26:40;24.33;55.43
70826;SHT31;58446;41.490;22.098;2023-08-07T01:29:18;24.40;55.27
70826;SHT31;58446;41.490;22.098;2023-08-07T01:31:46;23.97;55.96
70826;SHT31;58446;41.490;22.098;2023-08-07T01:34:17;23.84;55.67
70826;SHT31;58446;41.490;22.098;2023-08-07T01:36:45;23.43;56.09
70826;SHT31;58446;41.490;22.098;2023-08-07T01:39:11;23.89;56.26
70826;SHT31;58446;41.490;22.098;2023-08-07T01:41:37;24.06;56.02
70826;SHT31;58446;41.490;22.098;2023-08-07T01:44:03;24.12;55.87
70826;SHT31;58446;41.490;22.098;2023-08-07T01:46:29;24.29;55.59
70826;SHT31;58446;41.490;22.098;2023-08-07T01:48:54;24.37;55.39
70826;SHT31;58446;41.490;22.098;2023-08-07T01:51:20;24.30;55.75
70826;SHT31;58446;41.490;22.098;2023-08-07T01:53:46;24.28;55.69
70826;SHT31;58446;41.490;22.098;2023-08-07T01:56:13;24.28;55.69
70826;SHT31;58446;41.490;22.098;2023-08-07T01:58:38;24.13;55.83
70826;SHT31;58446;41.490;22.098;2023-08-07T02:01:04;24.01;55.84
70826;SHT31;58446;41.490;22.098;2023-08-07T02:03:30;23.71;56.48
70826;SHT31;58446;41.490;22.098;2023-08-07T02:05:55;23.19;59.17
70826;SHT31;58446;41.490;22.098;2023-08-07T02:08:21;22.79;59.76
70826;SHT31;58446;41.490;22.098;2023-08-07T02:10:46;22.38;61.66
70826;SHT31;58446;41.490;22.098;2023-08-07T02:13:12;21.73;63.42
70826;SHT31;58446;41.490;22.098;2023-08-07T02:15:38;21.28;64.23
70826;SHT31;58446;41.490;22.098;2023-08-07T02:18:03;21.61;63.61
70826;SHT31;58446;41.490;22.098;2023-08-07T02:20:29;21.97;62.50
70826;SHT31;58446;41.490;22.098;2023-08-07T02:22:55;22.25;61.17
70826;SHT31;58446;41.490;22.098;2023-08-07T02:25:20;21.64;62.57
70826;SHT31;58446;41.490;22.098;2023-08-07T02:27:46;22.63;60.40
70826;SHT31;58446;41.490;22.098;2023-08-07T02:30:12;23.04;59.05
70826;SHT31;58446;41.490;22.098;2023-08-07T02:32:37;23.33;58.31
70826;SHT31;58446;41.490;22.098;2023-08-07T02:35:03;23.36;57.99
70826;SHT31;58446;41.490;22.098;2023-08-07T02:37:29;23.20;58.77
70826;SHT31;58446;41.490;22.098;2023-08-07T02:39:54;22.55;60.35
70826;SHT31;58446;41.490;22.098;2023-08-07T02:42:20;22.31;61.38
70826;SHT31;58446;41.490;22.098;2023-08-07T02:44:46;22.76;59.85
70826;SHT31;58446;41.490;22.098;2023-08-07T02:47:11;22.45;60.28
70826;SHT31;58446;41.490;22.098;2023-08-07T02:49:37;22.68;59.91
70826;SHT31;58446;41.490;22.098;2023-08-07T02:52:03;22.92;58.95
70826;SHT31;58446;41.490;22.098;2023-08-07T02:54:28;22.93;59.00
70826;SHT31;58446;41.490;22.098;2023-08-07T02:56:54;22.85;59.08
70826;SHT31;58446;41.490;22.098;2023-08-07T02:59:20;23.03;58.80
70826;SHT31;58446;41.490;22.098;2023-08-07T03:01:45;23.19;58.21
70826;SHT31;58446;41.490;22.098;2023-08-07T03:04:11;22.52;60.12
70826;SHT31;58446;41.490;22.098;2023-08-07T03:06:37;21.87;60.97
70826;SHT31;58446;41.490;22.098;2023-08-07T03:09:02;21.80;61.52
70826;SHT31;58446;41.490;22.098;2023-08-07T03:11:29;22.15;61.19
70826;SHT31;58446;41.490;22.098;2023-08-07T03:13:54;22.56;59.83
70826;SHT31;58446;41.490;22.098;2023-08-07T03:16:20;22.79;59.01
70826;SHT31;58446;41.490;22.098;2023-08-07T03:18:46;22.89;58.86
70826;SHT31;58446;41.490;22.098;2023-08-07T03:21:12;23.26;57.91
70826;SHT31;58446;41.490;22.098;2023-08-07T03:23:37;23.33;57.67
70826;SHT31;58446;41.490;22.098;2023-08-07T03:26:11;23.37;57.60
70826;SHT31;58446;41.490;22.098;2023-08-07T03:28:37;23.51;57.26
70826;SHT31;58446;41.490;22.098;2023-08-07T03:31:03;23.16;58.28
70826;SHT31;58446;41.490;22.098;2023-08-07T03:33:29;23.19;58.30
70826;SHT31;58446;41.490;22.098;2023-08-07T03:35:55;22.68;60.44
70826;SHT31;58446;41.490;22.098;2023-08-07T03:38:20;22.65;60.07
70826;SHT31;58446;41.490;22.098;2023-08-07T03:40:46;22.99;59.10
70826;SHT31;58446;41.490;22.098;2023-08-07T03:43:12;23.33;58.14
70826;SHT31;58446;41.490;22.098;2023-08-07T03:45:38;21.94;62.82
70826;SHT31;58446;41.490;22.098;2023-08-07T03:48:04;22.21;61.52
70826;SHT31;58446;41.490;22.098;2023-08-07T03:50:30;22.56;60.93
70826;SHT31;58446;41.490;22.098;2023-08-07T03:52:56;22.95;59.68
70826;SHT31;58446;41.490;22.098;2023-08-07T03:55:21;23.23;58.81
70826;SHT31;58446;41.490;22.098;2023-08-07T03:57:47;23.19;58.88
70826;SHT31;58446;41.490;22.098;2023-08-07T04:00:13;23.07;59.00
70826;SHT31;58446;41.490;22.098;2023-08-07T04:02:39;23.13;58.85
70826;SHT31;58446;41.490;22.098;2023-08-07T04:05:06;23.17;58.75
70826;SHT31;58446;41.490;22.098;2023-08-07T04:07:31;23.14;58.92
70826;SHT31;58446;41.490;22.098;2023-08-07T04:09:57;23.24;58.47
70826;SHT31;58446;41.490;22.098;2023-08-07T04:12:23;23.23;58.56
70826;SHT31;58446;41.490;22.098;2023-08-07T04:14:48;23.36;57.96
70826;SHT31;58446;41.490;22.098;2023-08-07T04:17:14;23.16;58.49
70826;SHT31;58446;41.490;22.098;2023-08-07T04:19:39;23.03;59.19
70826;SHT31;58446;41.490;22.098;2023-08-07T04:22:05;23.21;58.02
70826;SHT31;58446;41.490;22.098;2023-08-07T04:24:31;23.30;58.00
70826;SHT31;58446;41.490;22.098;2023-08-07T04:26:56;23.11;58.88
70826;SHT31;58446;41.490;22.098;2023-08-07T04:29:24;22.83;59.85
70826;SHT31;58446;41.490;22.098;2023-08-07T04:31:49;23.28;59.14
70826;SHT31;58446;41.490;22.098;2023-08-07T04:34:15;23.53;58.21
70826;SHT31;58446;41.490;22.098;2023-08-07T04:36:41;23.74;57.62
70826;SHT31;58446;41.490;22.098;2023-08-07T04:39:06;24.08;56.93
70826;SHT31;58446;41.490;22.098;2023-08-07T04:41:32;24.04;56.91
70826;SHT31;58446;41.490;22.098;2023-08-07T04:43:58;24.01;58.29
70826;SHT31;58446;41.490;22.098;2023-08-07T04:46:23;24.41;57.29
70826;SHT31;58446;41.490;22.098;2023-08-07T04:48:49;24.37;57.58
70826;SHT31;58446;41.490;22.098;2023-08-07T04:51:15;24.60;56.30
70826;SHT31;58446;41.490;22.098;2023-08-07T04:53:41;24.73;56.38
70826;SHT31;58446;41.490;22.098;2023-08-07T04:56:06;24.52;56.37
70826;SHT31;58446;41.490;22.098;2023-08-07T04:58:32;24.35;57.01
70826;SHT31;58446;41.490;22.098;2023-08-07T05:00:58;24.66;55.91
70826;SHT31;58446;41.490;22.098;2023-08-07T05:03:25;25.17;54.26
70826;SHT31;58446;41.490;22.098;2023-08-07T05:05:58;25.15;54.53
70826;SHT31;58446;41.490;22.098;2023-08-07T05:08:24;25.31;53.69
70826;SHT31;58446;41.490;22.098;2023-08-07T05:10:49;25.63;53.46
70826;SHT31;58446;41.490;22.098;2023-08-07T05:13:15;25.76;52.48
70826;SHT31;58446;41.490;22.098;2023-08-07T05:15:40;25.48;52.31
70826;SHT31;58446;41.490;22.098;2023-08-07T05:18:06;25.45;53.93
70826;SHT31;58446;41.490;22.098;2023-08-07T05:20:32;25.55;53.31
70826;SHT31;58446;41.490;22.098;2023-08-07T05:22:58;25.32;53.15
70826;SHT31;58446;41.490;22.098;2023-08-07T05:25:23;25.15;54.45
70826;SHT31;58446;41.490;22.098;2023-08-07T05:27:49;25.43;53.54
70826;SHT31;58446;41.490;22.098;2023-08-07T05:30:15;25.38;52.64
70826;SHT31;58446;41.490;22.098;2023-08-07T05:32:40;25.14;54.23
70826;SHT31;58446;41.490;22.098;2023-08-07T05:35:07;25.53;54.42
70826;SHT31;58446;41.490;22.098;2023-08-07T05:37:35;25.73;53.26
70826;SHT31;58446;41.490;22.098;2023-08-07T05:40:01;25.82;53.45
70826;SHT31;58446;41.490;22.098;2023-08-07T05:42:27;26.07;53.09
70826;SHT31;58446;41.490;22.098;2023-08-07T05:44:53;26.03;52.90
70826;SHT31;58446;41.490;22.098;2023-08-07T05:47:19;25.78;52.10
70826;SHT31;58446;41.490;22.098;2023-08-07T05:49:44;25.92;52.52
70826;SHT31;58446;41.490;22.098;2023-08-07T05:52:12;25.96;53.12
70826;SHT31;58446;41.490;22.098;2023-08-07T05:54:37;26.33;52.27
70826;SHT31;58446;41.490;22.098;2023-08-07T05:57:03;26.45;51.66
70826;SHT31;58446;41.490;22.098;2023-08-07T05:59:29;26.48;51.99
70826;SHT31;58446;41.490;22.098;2023-08-07T06:01:55;26.69;51.43
70826;SHT31;58446;41.490;22.098;2023-08-07T06:04:26;27.00;51.65
70826;SHT31;58446;41.490;22.098;2023-08-07T06:06:53;27.12;51.33
70826;SHT31;58446;41.490;22.098;2023-08-07T06:09:18;27.25;50.22
70826;SHT31;58446;41.490;22.098;2023-08-07T06:11:45;27.37;50.06
70826;SHT31;58446;41.490;22.098;2023-08-07T06:14:11;27.60;50.19
70826;SHT31;58446;41.490;22.098;2023-08-07T06:16:36;27.67;49.96
70826;SHT31;58446;41.490;22.098;2023-08-07T06:19:02;27.83;49.02
70826;SHT31;58446;41.490;22.098;2023-08-07T06:21:28;27.97;49.98
70826;SHT31;58446;41.490;22.098;2023-08-07T06:23:54;28.19;48.58
70826;SHT31;58446;41.490;22.098;2023-08-07T06:26:20;28.34;48.49
70826;SHT31;58446;41.490;22.098;2023-08-07T06:28:46;28.34;47.86
70826;SHT31;58446;41.490;22.098;2023-08-07T06:31:12;28.46;48.45
70826;SHT31;58446;41.490;22.098;2023-08-07T06:33:38;28.35;46.88
70826;SHT31;58446;41.490;22.098;2023-08-07T06:36:04;28.29;47.36
70826;SHT31;58446;41.490;22.098;2023-08-07T06:38:30;28.49;47.10
70826;SHT31;58446;41.490;22.098;2023-08-07T06:40:57;28.68;46.90
70826;SHT31;58446;41.490;22.098;2023-08-07T06:43:22;28.84;46.08
70826;SHT31;58446;41.490;22.098;2023-08-07T06:45:55;28.83;46.08
70826;SHT31;58446;41.490;22.098;2023-08-07T06:48:20;28.80;45.79
70826;SHT31;58446;41.490;22.098;2023-08-07T06:50:47;28.73;46.29
70826;SHT31;58446;41.490;22.098;2023-08-07T06:53:13;28.87;44.59
70826;SHT31;58446;41.490;22.098;2023-08-07T06:55:38;28.96;44.30
70826;SHT31;58446;41.490;22.098;2023-08-07T06:58:04;29.02;45.08
70826;SHT31;58446;41.490;22.098;2023-08-07T07:00:30;29.08;45.37
70826;SHT31;58446;41.490;22.098;2023-08-07T07:02:56;29.26;44.42
70826;SHT31;58446;41.490;22.098;2023-08-07T07:05:22;29.33;44.54
70826;SHT31;58446;41.490;22.098;2023-08-07T07:07:47;29.23;45.24
70826;SHT31;58446;41.490;22.098;2023-08-07T07:10:13;29.35;44.81
70826;SHT31;58446;41.490;22.098;2023-08-07T07:12:39;29.55;44.07
70826;SHT31;58446;41.490;22.098;2023-08-07T07:15:05;29.43;44.49
70826;SHT31;58446;41.490;22.098;2023-08-07T07:17:30;29.53;44.36
70826;SHT31;58446;41.490;22.098;2023-08-07T07:19:56;29.47;43.22
70826;SHT31;58446;41.490;22.098;2023-08-07T07:22:22;29.46;43.47
70826;SHT31;58446;41.490;22.098;2023-08-07T07:24:48;29.61;43.48
70826;SHT31;58446;41.490;22.098;2023-08-07T07:27:14;29.65;42.81
70826;SHT31;58446;41.490;22.098;2023-08-07T07:29:40;29.69;43.28
70826;SHT31;58446;41.490;22.098;2023-08-07T07:32:06;29.84;43.46
70826;SHT31;58446;41.490;22.098;2023-08-07T07:34:32;29.90;42.36
70826;SHT31;58446;41.490;22.098;2023-08-07T07:36:58;29.98;42.00
70826;SHT31;58446;41.490;22.098;2023-08-07T07:39:24;29.78;42.22
70826;SHT31;58446;41.490;22.098;2023-08-07T07:41:49;29.85;42.35
70826;SHT31;58446;41.490;22.098;2023-08-07T07:44:15;29.96;42.64
70826;SHT31;58446;41.490;22.098;2023-08-07T07:46:41;29.98;41.04
70826;SHT31;58446;41.490;22.098;2023-08-07T07:49:06;29.90;43.09
70826;SHT31;58446;41.490;22.098;2023-08-07T07:51:32;29.92;43.07
70826;SHT31;58446;41.490;22.098;2023-08-07T07:53:58;30.10;44.26
70826;SHT31;58446;41.490;22.098;2023-08-07T07:56:24;30.15;42.51
70826;SHT31;58446;41.490;22.098;2023-08-07T07:58:49;30.27;43.67
70826;SHT31;58446;41.490;22.098;2023-08-07T08:01:15;30.41;41.90
70826;SHT31;58446;41.490;22.098;2023-08-07T08:03:42;30.39;42.09
70826;SHT31;58446;41.490;22.098;2023-08-07T08:06:11;30.33;41.16
70826;SHT31;58446;41.490;22.098;2023-08-07T08:08:36;30.19;42.52
70826;SHT31;58446;41.490;22.098;2023-08-07T08:11:02;30.23;41.30
70826;SHT31;58446;41.490;22.098;2023-08-07T08:13:27;29.88;42.66
70826;SHT31;58446;41.490;22.098;2023-08-07T08:15:54;29.57;43.20
70826;SHT31;58446;41.490;22.098;2023-08-07T08:18:19;29.54;43.64
70826;SHT31;58446;41.490;22.098;2023-08-07T08:20:45;29.59;43.40
70826;SHT31;58446;41.490;22.098;2023-08-07T08:23:11;29.34;41.42
70826;SHT31;58446;41.490;22.098;2023-08-07T08:25:36;29.43;43.52
70826;SHT31;58446;41.490;22.098;2023-08-07T08:28:02;29.71;41.93
70826;SHT31;58446;41.490;22.098;2023-08-07T08:30:28;30.06;43.50
70826;SHT31;58446;41.490;22.098;2023-08-07T08:32:54;30.12;42.40
70826;SHT31;58446;41.490;22.098;2023-08-07T08:35:19;29.92;44.36
70826;SHT31;58446;41.490;22.098;2023-08-07T08:37:45;29.98;43.90
70826;SHT31;58446;41.490;22.098;2023-08-07T08:40:11;29.89;42.75
70826;SHT31;58446;41.490;22.098;2023-08-07T08:42:43;30.19;43.23
70826;SHT31;58446;41.490;22.098;2023-08-07T08:45:12;30.36;41.59
70826;SHT31;58446;41.490;22.098;2023-08-07T08:47:39;30.47;41.66
70826;SHT31;58446;41.490;22.098;2023-08-07T08:50:07;30.26;41.95
70826;SHT31;58446;41.490;22.098;2023-08-07T08:52:35;29.99;41.96
70826;SHT31;58446;41.490;22.098;2023-08-07T08:55:02;30.19;41.01
70826;SHT31;58446;41.490;22.098;2023-08-07T08:57:29;30.01;41.82
70826;SHT31;58446;41.490;22.098;2023-08-07T08:59:56;29.75;42.41
70826;SHT31;58446;41.490;22.098;2023-08-07T09:02:22;29.81;41.55
70826;SHT31;58446;41.490;22.098;2023-08-07T09:04:48;29.92;40.00
70826;SHT31;58446;41.490;22.098;2023-08-07T09:07:15;29.68;39.80
70826;SHT31;58446;41.490;22.098;2023-08-07T09:09:42;29.81;42.25
70826;SHT31;58446;41.490;22.098;2023-08-07T09:12:16;29.86;39.82
70826;SHT31;58446;41.490;22.098;2023-08-07T09:14:45;29.72;40.82
70826;SHT31;58446;41.490;22.098;2023-08-07T09:17:13;29.85;39.27
70826;SHT31;58446;41.490;22.098;2023-08-07T09:19:40;29.69;40.08
70826;SHT31;58446;41.490;22.098;2023-08-07T09:22:06;29.61;39.98
70826;SHT31;58446;41.490;22.098;2023-08-07T09:24:32;29.55;40.04
70826;SHT31;58446;41.490;22.098;2023-08-07T09:26:58;29.81;40.66
70826;SHT31;58446;41.490;22.098;2023-08-07T09:29:24;29.81;39.34
70826;SHT31;58446;41.490;22.098;2023-08-07T09:31:49;30.05;40.52
70826;SHT31;58446;41.490;22.098;2023-08-07T09:34:19;30.23;41.34
70826;SHT31;58446;41.490;22.098;2023-08-07T09:36:45;29.92;40.98
70826;SHT31;58446;41.490;22.098;2023-08-07T09:39:11;30.16;42.51
70826;SHT31;58446;41.490;22.098;2023-08-07T09:41:36;30.40;40.55
70826;SHT31;58446;41.490;22.098;2023-08-07T09:44:09;30.56;39.99
70826;SHT31;58446;41.490;22.098;2023-08-07T09:46:45;30.61;41.16
70826;SHT31;58446;41.490;22.098;2023-08-07T09:49:11;30.68;38.71
70826;SHT31;58446;41.490;22.098;2023-08-07T09:51:46;30.71;38.66
70826;SHT31;58446;41.490;22.098;2023-08-07T09:54:12;30.63;39.83
70826;SHT31;58446;41.490;22.098;2023-08-07T09:56:41;30.71;40.14
70826;SHT31;58446;41.490;22.098;2023-08-07T09:59:08;30.77;40.99
70826;SHT31;58446;41.490;22.098;2023-08-07T10:01:37;30.49;40.66
70826;SHT31;58446;41.490;22.098;2023-08-07T10:04:05;30.05;41.52
70826;SHT31;58446;41.490;22.098;2023-08-07T10:06:31;29.75;39.72
70826;SHT31;58446;41.490;22.098;2023-08-07T10:08:57;29.84;42.78
70826;SHT31;58446;41.490;22.098;2023-08-07T10:11:26;29.85;41.74
70826;SHT31;58446;41.490;22.098;2023-08-07T10:13:53;29.78;41.55
70826;SHT31;58446;41.490;22.098;2023-08-07T10:16:19;29.93;41.78
70826;SHT31;58446;41.490;22.098;2023-08-07T10:18:45;30.04;41.29
70826;SHT31;58446;41.490;22.098;2023-08-07T10:21:11;29.89;43.47
70826;SHT31;58446;41.490;22.098;2023-08-07T10:23:38;29.77;42.81
70826;SHT31;58446;41.490;22.098;2023-08-07T10:26:06;30.01;42.72
70826;SHT31;58446;41.490;22.098;2023-08-07T10:28:35;30.26;40.30
70826;SHT31;58446;41.490;22.098;2023-08-07T10:31:09;30.32;39.50
70826;SHT31;58446;41.490;22.098;2023-08-07T10:33:36;30.36;40.07
70826;SHT31;58446;41.490;22.098;2023-08-07T10:36:08;30.55;39.38
70826;SHT31;58446;41.490;22.098;2023-08-07T10:38:35;30.87;40.23
70826;SHT31;58446;41.490;22.098;2023-08-07T10:41:08;31.01;40.15
70826;SHT31;58446;41.490;22.098;2023-08-07T10:43:52;31.08;40.90
70826;SHT31;58446;41.490;22.098;2023-08-07T10:46:22;31.10;38.97
70826;SHT31;58446;41.490;22.098;2023-08-07T10:48:54;30.92;39.72
70826;SHT31;58446;41.490;22.098;2023-08-07T10:51:28;30.73;39.99
70826;SHT31;58446;41.490;22.098;2023-08-07T10:53:55;30.83;39.02
70826;SHT31;58446;41.490;22.098;2023-08-07T10:56:36;30.68;39.02
70826;SHT31;58446;41.490;22.098;2023-08-07T10:59:10;30.47;40.08
70826;SHT31;58446;41.490;22.098;2023-08-07T11:01:41;30.40;39.94
70826;SHT31;58446;41.490;22.098;2023-08-07T11:04:13;30.66;39.26
70826;SHT31;58446;41.490;22.098;2023-08-07T11:06:40;30.64;39.54
70826;SHT31;58446;41.490;22.098;2023-08-07T11:09:07;30.63;40.30
70826;SHT31;58446;41.490;22.098;2023-08-07T11:11:40;30.83;39.35
70826;SHT31;58446;41.490;22.098;2023-08-07T11:14:07;30.77;41.01
70826;SHT31;58446;41.490;22.098;2023-08-07T11:16:37;30.70;37.12
70826;SHT31;58446;41.490;22.098;2023-08-07T11:19:03;30.68;37.13
70826;SHT31;58446;41.490;22.098;2023-08-07T11:21:32;30.73;38.91
70826;SHT31;58446;41.490;22.098;2023-08-07T11:23:58;30.67;38.72
70826;SHT31;58446;41.490;22.098;2023-08-07T11:26:24;30.83;38.48
70826;SHT31;58446;41.490;22.098;2023-08-07T11:28:51;30.88;40.09
70826;SHT31;58446;41.490;22.098;2023-08-07T11:31:18;31.07;39.10
70826;SHT31;58446;41.490;22.098;2023-08-07T11:33:44;31.04;40.08
70826;SHT31;58446;41.490;22.098;2023-08-07T11:36:11;30.76;39.63
70826;SHT31;58446;41.490;22.098;2023-08-07T11:38:39;30.87;39.22
70826;SHT31;58446;41.490;22.098;2023-08-07T11:41:07;30.78;39.61
70826;SHT31;58446;41.490;22.098;2023-08-07T11:43:34;30.86;36.90
70826;SHT31;58446;41.490;22.098;2023-08-07T11:46:07;30.99;38.74
70826;SHT31;58446;41.490;22.098;2023-08-07T11:48:35;31.01;38.62
70826;SHT31;58446;41.490;22.098;2023-08-07T11:51:01;31.01;37.85
70826;SHT31;58446;41.490;22.098;2023-08-07T11:53:29;31.10;38.54
70826;SHT31;58446;41.490;22.098;2023-08-07T11:58:40;31.19;37.90
70826;SHT31;58446;41.490;22.098;2023-08-07T12:01:10;31.22;37.92
70826;SHT31;58446;41.490;22.098;2023-08-07T12:03:38;31.35;36.52
70826;SHT31;58446;41.490;22.098;2023-08-07T12:06:08;31.35;36.74
70826;SHT31;58446;41.490;22.098;2023-08-07T12:08:38;31.53;36.75
70826;SHT31;58446;41.490;22.098;2023-08-07T12:11:09;31.65;37.03
70826;SHT31;58446;41.490;22.098;2023-08-07T12:13:44;31.70;37.32
70826;SHT31;58446;41.490;22.098;2023-08-07T12:16:11;31.65;35.86
70826;SHT31;58446;41.490;22.098;2023-08-07T12:18:46;31.50;36.97
70826;SHT31;58446;41.490;22.098;2023-08-07T12:21:15;31.25;37.91
70826;SHT31;58446;41.490;22.098;2023-08-07T12:23:41;31.25;38.56
70826;SHT31;58446;41.490;22.098;2023-08-07T12:26:07;31.17;37.49
70826;SHT31;58446;41.490;22.098;2023-08-07T12:28:34;31.21;36.30
70826;SHT31;58446;41.490;22.098;2023-08-07T12:31:00;31.42;37.12
70826;SHT31;58446;41.490;22.098;2023-08-07T12:33:26;31.48;37.49
70826;SHT31;58446;41.490;22.098;2023-08-07T12:35:52;31.31;37.77
70826;SHT31;58446;41.490;22.098;2023-08-07T12:38:18;31.24;37.22
70826;SHT31;58446;41.490;22.098;2023-08-07T12:40:44;31.32;37.02
70826;SHT31;58446;41.490;22.098;2023-08-07T12:43:10;31.36;36.52
70826;SHT31;58446;41.490;22.098;2023-08-07T12:45:36;31.48;37.34
70826;SHT31;58446;41.490;22.098;2023-08-07T12:48:02;31.53;37.30
70826;SHT31;58446;41.490;22.098;2023-08-07T12:50:28;31.63;37.45
70826;SHT31;58446;41.490;22.098;2023-08-07T12:52:54;31.82;35.76
70826;SHT31;58446;41.490;22.098;2023-08-07T12:55:20;31.97;35.97
70826;SHT31;58446;41.490;22.098;2023-08-07T12:57:46;32.05;37.09
70826;SHT31;58446;41.490;22.098;2023-08-07T13:00:12;32.00;36.44
70826;SHT31;58446;41.490;22.098;2023-08-07T13:02:41;31.86;36.81
70826;SHT31;58446;41.490;22.098;2023-08-07T13:05:07;31.67;37.64
70826;SHT31;58446;41.490;22.098;2023-08-07T13:07:34;31.87;37.48
70826;SHT31;58446;41.490;22.098;2023-08-07T13:10:00;31.96;34.89
70826;SHT31;58446;41.490;22.098;2023-08-07T13:12:25;32.03;36.04
70826;SHT31;58446;41.490;22.098;2023-08-07T13:14:51;32.10;36.26
70826;SHT31;58446;41.490;22.098;2023-08-07T13:17:17;32.07;36.41
70826;SHT31;58446;41.490;22.098;2023-08-07T13:19:43;32.06;35.64
70826;SHT31;58446;41.490;22.098;2023-08-07T13:22:08;32.12;33.01
70826;SHT31;58446;41.490;22.098;2023-08-07T13:24:34;32.23;33.00
70826;SHT31;58446;41.490;22.098;2023-08-07T13:27:00;32.20;32.36
70826;SHT31;58446;41.490;22.098;2023-08-07T13:29:25;32.33;32.56
70826;SHT31;58446;41.490;22.098;2023-08-07T13:31:55;32.40;33.64
70826;SHT31;58446;41.490;22.098;2023-08-07T13:34:20;32.51;32.68
70826;SHT31;58446;41.490;22.098;2023-08-07T13:36:47;32.65;32.68
70826;SHT31;58446;41.490;22.098;2023-08-07T13:39:13;32.63;33.00
70826;SHT31;58446;41.490;22.098;2023-08-07T13:41:40;32.58;32.80
70826;SHT31;58446;41.490;22.098;2023-08-07T13:44:05;32.53;32.43
70826;SHT31;58446;41.490;22.098;2023-08-07T13:46:31;32.57;33.19
70826;SHT31;58446;41.490;22.098;2023-08-07T13:48:57;32.60;33.18
70826;SHT31;58446;41.490;22.098;2023-08-07T13:51:23;32.64;31.66
70826;SHT31;58446;41.490;22.098;2023-08-07T13:53:48;32.63;33.13
70826;SHT31;58446;41.490;22.098;2023-08-07T13:56:14;32.63;33.75
70826;SHT31;58446;41.490;22.098;2023-08-07T13:58:40;32.77;31.44
70826;SHT31;58446;41.490;22.098;2023-08-07T14:01:05;32.85;32.71
70826;SHT31;58446;41.490;22.098;2023-08-07T14:03:31;32.88;32.19
70826;SHT31;58446;41.490;22.098;2023-08-07T14:05:57;32.98;32.09
70826;SHT31;58446;41.490;22.098;2023-08-07T14:08:23;32.86;32.57
70826;SHT31;58446;41.490;22.098;2023-08-07T14:10:49;32.96;31.23
70826;SHT31;58446;41.490;22.098;2023-08-07T14:13:16;32.85;33.03
70826;SHT31;58446;41.490;22.098;2023-08-07T14:15:41;32.77;32.04
70826;SHT31;58446;41.490;22.098;2023-08-07T14:18:07;32.77;33.16
70826;SHT31;58446;41.490;22.098;2023-08-07T14:20:33;32.65;33.61
70826;SHT31;58446;41.490;22.098;2023-08-07T14:22:58;32.57;33.66
70826;SHT31;58446;41.490;22.098;2023-08-07T14:25:24;32.61;33.39
70826;SHT31;58446;41.490;22.098;2023-08-07T14:27:50;32.58;33.38
70826;SHT31;58446;41.490;22.098;2023-08-07T14:30:16;32.54;34.02
70826;SHT31;58446;41.490;22.098;2023-08-07T14:32:41;32.61;34.31
70826;SHT31;58446;41.490;22.098;2023-08-07T14:35:15;32.86;33.57
70826;SHT31;58446;41.490;22.098;2023-08-07T14:37:41;33.02;32.11
70826;SHT31;58446;41.490;22.098;2023-08-07T14:40:07;33.18;32.70
70826;SHT31;58446;41.490;22.098;2023-08-07T14:42:33;33.27;32.95
70826;SHT31;58446;41.490;22.098;2023-08-07T14:44:59;33.19;31.37
70826;SHT31;58446;41.490;22.098;2023-08-07T14:47:25;33.19;32.27
70826;SHT31;58446;41.490;22.098;2023-08-07T14:49:51;33.25;31.75
70826;SHT31;58446;41.490;22.098;2023-08-07T14:52:17;33.27;31.79
70826;SHT31;58446;41.490;22.098;2023-08-07T14:54:43;33.21;31.84
70826;SHT31;58446;41.490;22.098;2023-08-07T14:57:09;33.25;31.70
70826;SHT31;58446;41.490;22.098;2023-08-07T14:59:36;33.23;31.38
70826;SHT31;58446;41.490;22.098;2023-08-07T15:02:01;33.32;31.96
70826;SHT31;58446;41.490;22.098;2023-08-07T15:04:27;33.33;31.57
70826;SHT31;58446;41.490;22.098;2023-08-07T15:06:53;33.25;31.16
70826;SHT31;58446;41.490;22.098;2023-08-07T15:09:19;33.22;31.80
70826;SHT31;58446;41.490;22.098;2023-08-07T15:11:46;33.22;32.70
70826;SHT31;58446;41.490;22.098;2023-08-07T15:14:12;33.19;32.94
70826;SHT31;58446;41.490;22.098;2023-08-07T15:16:37;33.23;32.39
70826;SHT31;58446;41.490;22.098;2023-08-07T15:19:03;33.14;32.06
70826;SHT31;58446;41.490;22.098;2023-08-07T15:21:30;32.99;32.77